sensor_id;sensor_type;location;lat;lon;timestamp;P1;durP1;ratioP1;P2;durP2;ratioP2
59193;SDS011;44967;48.598;15.650;2023-11-21T00:00:34;4.38;;;1.50;;
59193;SDS011;44967;48.598;15.650;2023-11-21T00:03:00;2.90;;;1.25;;
59193;SDS011;44967;48.598;15.650;2023-11-21T00:05:26;4.97;;;1.77;;
59193;SDS011;44967;48.598;15.650;2023-11-21T00:07:51;3.22;;;1.90;;
59193;SDS011;44967;48.598;15.650;2023-11-21T00:10:17;2.90;;;0.98;;
59193;SDS011;44967;48.598;15.650;2023-11-21T00:12:43;1.83;;;1.38;;
59193;SDS011;44967;48.598;15.650;2023-11-21T00:15:09;3.08;;;1.83;;
59193;SDS011;44967;48.598;15.650;2023-11-21T00:17:36;5.03;;;1.98;;
59193;SDS011;44967;48.598;15.650;2023-11-21T00:20:04;3.83;;;1.42;;
59193;SDS011;44967;48.598;15.650;2023-11-21T00:22:32;2.45;;;1.80;;
59193;SDS011;44967;48.598;15.650;2023-11-21T00:24:59;6.28;;;1.92;;
59193;SDS011;44967;48.598;15.650;2023-11-21T00:27:24;1.85;;;1.45;;
59193;SDS011;44967;48.598;15.650;2023-11-21T00:29:51;2.35;;;1.67;;
59193;SDS011;44967;48.598;15.650;2023-11-21T00:32:16;3.35;;;1.73;;
59193;SDS011;44967;48.598;15.650;2023-11-21T00:34:42;4.53;;;1.55;;
59193;SDS011;44967;48.598;15.650;2023-11-21T00:37:08;2.72;;;1.77;;
59193;SDS011;44967;48.598;15.650;2023-11-21T00:39:34;3.50;;;1.58;;
59193;SDS011;44967;48.598;15.650;2023-11-21T00:42:00;3.50;;;2.20;;
59193;SDS011;44967;48.598;15.650;2023-11-21T00:44:26;2.05;;;1.73;;
59193;SDS011;44967;48.598;15.650;2023-11-21T00:46:51;4.40;;;1.67;;
59193;SDS011;44967;48.598;15.650;2023-11-21T00:49:17;2.45;;;1.80;;
59193;SDS011;44967;48.598;15.650;2023-11-21T00:51:43;4.00;;;1.77;;
59193;SDS011;44967;48.598;15.650;2023-11-21T00:54:09;2.28;;;1.48;;
59193;SDS011;44967;48.598;15.650;2023-11-21T00:56:35;4.00;;;1.45;;
59193;SDS011;44967;48.598;15.650;2023-11-21T00:59:01;3.47;;;1.63;;
59193;SDS011;44967;48.598;15.650;2023-11-21T01:01:26;1.83;;;1.25;;
59193;SDS011;44967;48.598;15.650;2023-11-21T01:03:52;3.22;;;1.42;;
59193;SDS011;44967;48.598;15.650;2023-11-21T01:06:19;2.78;;;0.88;;
59193;SDS011;44967;48.598;15.650;2023-11-21T01:08:45;2.67;;;1.48;;
59193;SDS011;44967;48.598;15.650;2023-11-21T01:11:11;1.33;;;1.17;;
59193;SDS011;44967;48.598;15.650;2023-11-21T01:13:38;1.55;;;1.27;;
59193;SDS011;44967;48.598;15.650;2023-11-21T01:16:05;2.78;;;1.42;;
59193;SDS011;44967;48.598;15.650;2023-11-21T01:18:31;4.45;;;1.98;;
59193;SDS011;44967;48.598;15.650;2023-11-21T01:20:58;2.58;;;1.73;;
59193;SDS011;44967;48.598;15.650;2023-11-21T01:23:24;2.17;;;1.75;;
59193;SDS011;44967;48.598;15.650;2023-11-21T01:25:50;3.33;;;1.90;;
59193;SDS011;44967;48.598;15.650;2023-11-21T01:28:17;2.45;;;1.88;;
59193;SDS011;44967;48.598;15.650;2023-11-21T01:30:43;3.70;;;2.05;;
59193;SDS011;44967;48.598;15.650;2023-11-21T01:33:09;2.95;;;1.50;;
59193;SDS011;44967;48.598;15.650;2023-11-21T01:35:35;2.80;;;1.35;;
59193;SDS011;44967;48.598;15.650;2023-11-21T01:38:01;1.63;;;1.05;;
59193;SDS011;44967;48.598;15.650;2023-11-21T01:40:27;1.92;;;1.50;;
59193;SDS011;44967;48.598;15.650;2023-11-21T01:42:54;2.53;;;1.48;;
59193;SDS011;44967;48.598;15.650;2023-11-21T01:45:19;1.58;;;1.23;;
59193;SDS011;44967;48.598;15.650;2023-11-21T01:47:45;1.42;;;1.15;;
59193;SDS011;44967;48.598;15.650;2023-11-21T01:50:15;2.75;;;1.48;;
59193;SDS011;44967;48.598;15.650;2023-11-21T01:52:47;3.03;;;1.27;;
59193;SDS011;44967;48.598;15.650;2023-11-21T01:55:14;2.70;;;1.70;;
59193;SDS011;44967;48.598;15.650;2023-11-21T01:57:44;2.88;;;1.67;;
59193;SDS011;44967;48.598;15.650;2023-11-21T02:00:11;3.42;;;1.40;;
59193;SDS011;44967;48.598;15.650;2023-11-21T02:02:45;2.92;;;1.05;;
59193;SDS011;44967;48.598;15.650;2023-11-21T02:05:12;4.30;;;1.52;;
59193;SDS011;44967;48.598;15.650;2023-11-21T02:07:39;5.15;;;2.05;;
59193;SDS011;44967;48.598;15.650;2023-11-21T02:10:08;1.98;;;1.30;;
59193;SDS011;44967;48.598;15.650;2023-11-21T02:12:35;2.60;;;1.55;;
59193;SDS011;44967;48.598;15.650;2023-11-21T02:15:02;2.13;;;1.60;;
59193;SDS011;44967;48.598;15.650;2023-11-21T02:17:30;3.85;;;1.58;;
59193;SDS011;44967;48.598;15.650;2023-11-21T02:19:58;1.98;;;1.40;;
59193;SDS011;44967;48.598;15.650;2023-11-21T02:22:26;3.47;;;1.83;;
59193;SDS011;44967;48.598;15.650;2023-11-21T02:24:56;4.05;;;2.22;;
59193;SDS011;44967;48.598;15.650;2023-11-21T02:27:23;4.00;;;2.63;;
59193;SDS011;44967;48.598;15.650;2023-11-21T02:29:49;3.20;;;1.67;;
59193;SDS011;44967;48.598;15.650;2023-11-21T02:32:15;3.42;;;1.95;;
59193;SDS011;44967;48.598;15.650;2023-11-21T02:34:45;3.90;;;1.90;;
59193;SDS011;44967;48.598;15.650;2023-11-21T02:37:11;2.15;;;1.35;;
59193;SDS011;44967;48.598;15.650;2023-11-21T02:39:36;3.60;;;1.50;;
59193;SDS011;44967;48.598;15.650;2023-11-21T02:42:03;2.05;;;1.40;;
59193;SDS011;44967;48.598;15.650;2023-11-21T02:44:30;1.73;;;1.17;;
59193;SDS011;44967;48.598;15.650;2023-11-21T02:46:56;6.25;;;2.08;;
59193;SDS011;44967;48.598;15.650;2023-11-21T02:49:23;3.17;;;1.30;;
59193;SDS011;44967;48.598;15.650;2023-11-21T02:51:49;1.80;;;1.30;;
59193;SDS011;44967;48.598;15.650;2023-11-21T02:54:14;1.70;;;1.27;;
59193;SDS011;44967;48.598;15.650;2023-11-21T02:56:42;4.22;;;1.75;;
59193;SDS011;44967;48.598;15.650;2023-11-21T02:59:07;3.83;;;2.03;;
59193;SDS011;44967;48.598;15.650;2023-11-21T03:01:34;5.47;;;1.40;;
59193;SDS011;44967;48.598;15.650;2023-11-21T03:03:59;4.15;;;1.30;;
59193;SDS011;44967;48.598;15.650;2023-11-21T03:06:25;4.40;;;1.40;;
59193;SDS011;44967;48.598;15.650;2023-11-21T03:08:51;4.45;;;2.80;;
59193;SDS011;44967;48.598;15.650;2023-11-21T03:11:17;4.28;;;2.42;;
59193;SDS011;44967;48.598;15.650;2023-11-21T03:13:42;2.55;;;1.60;;
59193;SDS011;44967;48.598;15.650;2023-11-21T03:16:09;3.15;;;1.20;;
59193;SDS011;44967;48.598;15.650;2023-11-21T03:18:36;2.63;;;1.70;;
59193;SDS011;44967;48.598;15.650;2023-11-21T03:21:03;2.17;;;1.67;;
59193;SDS011;44967;48.598;15.650;2023-11-21T03:23:30;3.38;;;1.80;;
59193;SDS011;44967;48.598;15.650;2023-11-21T03:25:56;3.08;;;1.55;;
59193;SDS011;44967;48.598;15.650;2023-11-21T03:28:22;3.58;;;1.50;;
59193;SDS011;44967;48.598;15.650;2023-11-21T03:30:48;11.45;;;2.42;;
59193;SDS011;44967;48.598;15.650;2023-11-21T03:33:14;3.35;;;1.60;;
59193;SDS011;44967;48.598;15.650;2023-11-21T03:35:40;3.58;;;2.40;;
59193;SDS011;44967;48.598;15.650;2023-11-21T03:38:07;3.67;;;2.58;;
59193;SDS011;44967;48.598;15.650;2023-11-21T03:40:35;3.85;;;2.10;;
59193;SDS011;44967;48.598;15.650;2023-11-21T03:43:00;2.67;;;1.80;;
59193;SDS011;44967;48.598;15.650;2023-11-21T03:45:27;5.47;;;2.00;;
59193;SDS011;44967;48.598;15.650;2023-11-21T03:47:52;4.07;;;1.67;;
59193;SDS011;44967;48.598;15.650;2023-11-21T03:50:18;3.78;;;1.50;;
59193;SDS011;44967;48.598;15.650;2023-11-21T03:52:44;3.08;;;1.30;;
59193;SDS011;44967;48.598;15.650;2023-11-21T03:55:09;3.17;;;1.30;;
59193;SDS011;44967;48.598;15.650;2023-11-21T03:57:36;5.07;;;1.15;;
59193;SDS011;44967;48.598;15.650;2023-11-21T04:00:02;3.70;;;1.52;;
59193;SDS011;44967;48.598;15.650;2023-11-21T04:02:29;2.75;;;1.30;;
59193;SDS011;44967;48.598;15.650;2023-11-21T04:04:57;1.52;;;1.23;;
59193;SDS011;44967;48.598;15.650;2023-11-21T04:07:23;1.92;;;1.10;;
59193;SDS011;44967;48.598;15.650;2023-11-21T04:09:49;2.10;;;1.33;;
59193;SDS011;44967;48.598;15.650;2023-11-21T04:12:15;1.02;;;0.90;;
59193;SDS011;44967;48.598;15.650;2023-11-21T04:14:40;1.38;;;1.17;;
59193;SDS011;44967;48.598;15.650;2023-11-21T04:17:06;2.88;;;1.65;;
59193;SDS011;44967;48.598;15.650;2023-11-21T04:19:32;2.10;;;1.35;;
59193;SDS011;44967;48.598;15.650;2023-11-21T04:21:57;1.40;;;1.30;;
59193;SDS011;44967;48.598;15.650;2023-11-21T04:24:23;3.17;;;1.50;;
59193;SDS011;44967;48.598;15.650;2023-11-21T04:26:49;5.43;;;1.48;;
59193;SDS011;44967;48.598;15.650;2023-11-21T04:29:15;4.60;;;1.30;;
59193;SDS011;44967;48.598;15.650;2023-11-21T04:31:40;2.83;;;1.00;;
59193;SDS011;44967;48.598;15.650;2023-11-21T04:34:07;1.25;;;1.15;;
59193;SDS011;44967;48.598;15.650;2023-11-21T04:36:33;2.88;;;1.35;;
59193;SDS011;44967;48.598;15.650;2023-11-21T04:39:00;2.05;;;1.30;;
59193;SDS011;44967;48.598;15.650;2023-11-21T04:41:26;5.85;;;1.70;;
59193;SDS011;44967;48.598;15.650;2023-11-21T04:43:52;2.97;;;1.25;;
59193;SDS011;44967;48.598;15.650;2023-11-21T04:46:17;2.20;;;1.25;;
59193;SDS011;44967;48.598;15.650;2023-11-21T04:48:43;1.10;;;1.00;;
59193;SDS011;44967;48.598;15.650;2023-11-21T04:51:09;1.85;;;1.20;;
59193;SDS011;44967;48.598;15.650;2023-11-21T04:53:37;3.95;;;1.50;;
59193;SDS011;44967;48.598;15.650;2023-11-21T04:56:02;4.00;;;1.50;;
59193;SDS011;44967;48.598;15.650;2023-11-21T04:58:28;3.80;;;1.67;;
59193;SDS011;44967;48.598;15.650;2023-11-21T05:00:54;2.78;;;1.52;;
59193;SDS011;44967;48.598;15.650;2023-11-21T05:03:20;5.45;;;1.33;;
59193;SDS011;44967;48.598;15.650;2023-11-21T05:05:45;2.30;;;1.63;;
59193;SDS011;44967;48.598;15.650;2023-11-21T05:08:11;4.30;;;1.30;;
59193;SDS011;44967;48.598;15.650;2023-11-21T05:10:37;3.08;;;1.52;;
59193;SDS011;44967;48.598;15.650;2023-11-21T05:13:04;3.50;;;1.65;;
59193;SDS011;44967;48.598;15.650;2023-11-21T05:15:35;5.05;;;1.63;;
59193;SDS011;44967;48.598;15.650;2023-11-21T05:18:00;3.65;;;2.35;;
59193;SDS011;44967;48.598;15.650;2023-11-21T05:20:27;4.70;;;1.42;;
59193;SDS011;44967;48.598;15.650;2023-11-21T05:22:53;1.67;;;1.10;;
59193;SDS011;44967;48.598;15.650;2023-11-21T05:25:19;2.90;;;1.33;;
59193;SDS011;44967;48.598;15.650;2023-11-21T05:27:45;4.20;;;1.45;;
59193;SDS011;44967;48.598;15.650;2023-11-21T05:30:12;4.78;;;1.40;;
59193;SDS011;44967;48.598;15.650;2023-11-21T05:32:39;2.13;;;1.20;;
59193;SDS011;44967;48.598;15.650;2023-11-21T05:35:08;3.40;;;1.23;;
59193;SDS011;44967;48.598;15.650;2023-11-21T05:37:38;4.53;;;1.40;;
59193;SDS011;44967;48.598;15.650;2023-11-21T05:40:05;2.42;;;1.17;;
59193;SDS011;44967;48.598;15.650;2023-11-21T05:42:32;3.40;;;1.13;;
59193;SDS011;44967;48.598;15.650;2023-11-21T05:44:59;3.80;;;1.75;;
59193;SDS011;44967;48.598;15.650;2023-11-21T05:47:41;3.67;;;1.33;;
59193;SDS011;44967;48.598;15.650;2023-11-21T05:50:11;2.17;;;1.20;;
59193;SDS011;44967;48.598;15.650;2023-11-21T05:52:45;2.95;;;1.20;;
59193;SDS011;44967;48.598;15.650;2023-11-21T05:55:12;2.42;;;1.55;;
59193;SDS011;44967;48.598;15.650;2023-11-21T05:57:39;2.47;;;1.10;;
59193;SDS011;44967;48.598;15.650;2023-11-21T06:00:06;6.93;;;2.47;;
59193;SDS011;44967;48.598;15.650;2023-11-21T06:02:49;2.88;;;1.55;;
59193;SDS011;44967;48.598;15.650;2023-11-21T06:05:24;6.95;;;2.42;;
59193;SDS011;44967;48.598;15.650;2023-11-21T06:07:55;4.88;;;1.85;;
59193;SDS011;44967;48.598;15.650;2023-11-21T06:10:24;6.32;;;2.25;;
59193;SDS011;44967;48.598;15.650;2023-11-21T06:12:50;7.05;;;1.90;;
59193;SDS011;44967;48.598;15.650;2023-11-21T06:15:17;6.78;;;2.10;;
59193;SDS011;44967;48.598;15.650;2023-11-21T06:17:46;1.80;;;1.50;;
59193;SDS011;44967;48.598;15.650;2023-11-21T06:20:17;2.17;;;0.95;;
59193;SDS011;44967;48.598;15.650;2023-11-21T06:22:47;1.40;;;0.90;;
59193;SDS011;44967;48.598;15.650;2023-11-21T06:25:14;2.90;;;1.08;;
59193;SDS011;44967;48.598;15.650;2023-11-21T06:27:41;1.33;;;1.08;;
59193;SDS011;44967;48.598;15.650;2023-11-21T06:30:08;2.58;;;1.10;;
59193;SDS011;44967;48.598;15.650;2023-11-21T06:32:35;1.40;;;0.70;;
59193;SDS011;44967;48.598;15.650;2023-11-21T06:35:02;1.83;;;1.10;;
59193;SDS011;44967;48.598;15.650;2023-11-21T06:37:29;2.58;;;1.33;;
59193;SDS011;44967;48.598;15.650;2023-11-21T06:39:55;2.83;;;0.90;;
59193;SDS011;44967;48.598;15.650;2023-11-21T06:42:22;1.52;;;1.27;;
59193;SDS011;44967;48.598;15.650;2023-11-21T06:44:47;1.73;;;1.02;;
59193;SDS011;44967;48.598;15.650;2023-11-21T06:47:17;3.80;;;1.08;;
59193;SDS011;44967;48.598;15.650;2023-11-21T06:49:45;6.45;;;1.45;;
59193;SDS011;44967;48.598;15.650;2023-11-21T06:52:13;1.85;;;1.05;;
59193;SDS011;44967;48.598;15.650;2023-11-21T06:54:39;2.42;;;1.00;;
59193;SDS011;44967;48.598;15.650;2023-11-21T06:57:05;3.45;;;1.20;;
59193;SDS011;44967;48.598;15.650;2023-11-21T06:59:30;4.55;;;0.98;;
59193;SDS011;44967;48.598;15.650;2023-11-21T07:01:57;2.95;;;0.95;;
59193;SDS011;44967;48.598;15.650;2023-11-21T07:04:23;2.75;;;1.20;;
59193;SDS011;44967;48.598;15.650;2023-11-21T07:06:51;4.30;;;2.97;;
59193;SDS011;44967;48.598;15.650;2023-11-21T07:09:18;6.57;;;3.25;;
59193;SDS011;44967;48.598;15.650;2023-11-21T07:11:49;4.35;;;1.98;;
59193;SDS011;44967;48.598;15.650;2023-11-21T07:14:15;3.60;;;1.77;;
59193;SDS011;44967;48.598;15.650;2023-11-21T07:16:42;3.05;;;1.90;;
59193;SDS011;44967;48.598;15.650;2023-11-21T07:19:08;7.80;;;2.40;;
59193;SDS011;44967;48.598;15.650;2023-11-21T07:21:37;2.60;;;2.40;;
59193;SDS011;44967;48.598;15.650;2023-11-21T07:24:05;3.40;;;2.10;;
59193;SDS011;44967;48.598;15.650;2023-11-21T07:26:32;3.80;;;2.10;;
59193;SDS011;44967;48.598;15.650;2023-11-21T07:28:59;3.38;;;1.98;;
59193;SDS011;44967;48.598;15.650;2023-11-21T07:31:26;5.22;;;2.38;;
59193;SDS011;44967;48.598;15.650;2023-11-21T07:33:52;7.22;;;3.00;;
59193;SDS011;44967;48.598;15.650;2023-11-21T07:36:19;3.05;;;2.10;;
59193;SDS011;44967;48.598;15.650;2023-11-21T07:38:46;3.10;;;2.25;;
59193;SDS011;44967;48.598;15.650;2023-11-21T07:41:13;2.75;;;2.22;;
59193;SDS011;44967;48.598;15.650;2023-11-21T07:43:43;3.17;;;2.05;;
59193;SDS011;44967;48.598;15.650;2023-11-21T07:46:10;5.43;;;2.47;;
59193;SDS011;44967;48.598;15.650;2023-11-21T07:48:38;4.05;;;2.22;;
59193;SDS011;44967;48.598;15.650;2023-11-21T07:51:04;4.75;;;2.70;;
59193;SDS011;44967;48.598;15.650;2023-11-21T07:53:30;6.18;;;2.35;;
59193;SDS011;44967;48.598;15.650;2023-11-21T07:55:56;2.30;;;1.88;;
59193;SDS011;44967;48.598;15.650;2023-11-21T07:58:23;2.92;;;2.08;;
59193;SDS011;44967;48.598;15.650;2023-11-21T08:00:49;3.00;;;2.40;;
59193;SDS011;44967;48.598;15.650;2023-11-21T08:03:16;4.32;;;3.15;;
59193;SDS011;44967;48.598;15.650;2023-11-21T08:05:42;7.18;;;4.38;;
59193;SDS011;44967;48.598;15.650;2023-11-21T08:08:08;15.05;;;7.75;;
59193;SDS011;44967;48.598;15.650;2023-11-21T08:10:34;9.00;;;6.53;;
59193;SDS011;44967;48.598;15.650;2023-11-21T08:13:01;10.32;;;5.90;;
59193;SDS011;44967;48.598;15.650;2023-11-21T08:15:29;9.45;;;6.20;;
59193;SDS011;44967;48.598;15.650;2023-11-21T08:17:57;6.57;;;4.95;;
59193;SDS011;44967;48.598;15.650;2023-11-21T08:20:26;8.15;;;5.55;;
59193;SDS011;44967;48.598;15.650;2023-11-21T08:22:53;6.50;;;4.82;;
59193;SDS011;44967;48.598;15.650;2023-11-21T08:25:22;6.90;;;4.40;;
59193;SDS011;44967;48.598;15.650;2023-11-21T08:27:48;8.10;;;5.05;;
59193;SDS011;44967;48.598;15.650;2023-11-21T08:30:14;7.18;;;5.38;;
59193;SDS011;44967;48.598;15.650;2023-11-21T08:32:42;9.50;;;5.07;;
59193;SDS011;44967;48.598;15.650;2023-11-21T08:35:08;12.80;;;5.82;;
59193;SDS011;44967;48.598;15.650;2023-11-21T08:37:34;9.52;;;6.50;;
59193;SDS011;44967;48.598;15.650;2023-11-21T08:40:03;12.15;;;7.95;;
59193;SDS011;44967;48.598;15.650;2023-11-21T08:42:35;8.75;;;6.10;;
59193;SDS011;44967;48.598;15.650;2023-11-21T08:45:01;11.75;;;6.13;;
59193;SDS011;44967;48.598;15.650;2023-11-21T08:47:27;8.15;;;5.40;;
59193;SDS011;44967;48.598;15.650;2023-11-21T08:49:53;8.55;;;5.03;;
59193;SDS011;44967;48.598;15.650;2023-11-21T08:52:19;8.73;;;4.78;;
59193;SDS011;44967;48.598;15.650;2023-11-21T08:54:48;8.50;;;4.57;;
59193;SDS011;44967;48.598;15.650;2023-11-21T08:57:25;8.13;;;4.93;;
59193;SDS011;44967;48.598;15.650;2023-11-21T08:59:51;9.60;;;5.35;;
59193;SDS011;44967;48.598;15.650;2023-11-21T09:02:23;6.45;;;4.40;;
59193;SDS011;44967;48.598;15.650;2023-11-21T09:04:51;30.77;;;16.60;;
59193;SDS011;44967;48.598;15.650;2023-11-21T09:07:21;23.17;;;13.27;;
59193;SDS011;44967;48.598;15.650;2023-11-21T09:09:47;19.38;;;10.32;;
59193;SDS011;44967;48.598;15.650;2023-11-21T09:12:14;8.18;;;4.85;;
59193;SDS011;44967;48.598;15.650;2023-11-21T09:14:39;13.25;;;6.32;;
59193;SDS011;44967;48.598;15.650;2023-11-21T09:17:05;14.15;;;6.05;;
59193;SDS011;44967;48.598;15.650;2023-11-21T09:19:36;9.80;;;5.20;;
59193;SDS011;44967;48.598;15.650;2023-11-21T09:22:03;6.45;;;4.13;;
59193;SDS011;44967;48.598;15.650;2023-11-21T09:24:34;7.28;;;3.90;;
59193;SDS011;44967;48.598;15.650;2023-11-21T09:27:00;8.77;;;6.18;;
59193;SDS011;44967;48.598;15.650;2023-11-21T09:29:26;11.98;;;8.07;;
59193;SDS011;44967;48.598;15.650;2023-11-21T09:31:52;11.98;;;8.23;;
59193;SDS011;44967;48.598;15.650;2023-11-21T09:34:20;8.27;;;5.90;;
59193;SDS011;44967;48.598;15.650;2023-11-21T09:36:47;6.93;;;4.07;;
59193;SDS011;44967;48.598;15.650;2023-11-21T09:39:13;10.70;;;4.40;;
59193;SDS011;44967;48.598;15.650;2023-11-21T09:41:48;4.65;;;2.47;;
59193;SDS011;44967;48.598;15.650;2023-11-21T09:44:19;4.32;;;2.20;;
59193;SDS011;44967;48.598;15.650;2023-11-21T09:46:56;5.22;;;2.45;;
59193;SDS011;44967;48.598;15.650;2023-11-21T09:49:24;5.45;;;3.00;;
59193;SDS011;44967;48.598;15.650;2023-11-21T09:51:52;3.70;;;2.22;;
59193;SDS011;44967;48.598;15.650;2023-11-21T09:54:21;6.22;;;3.10;;
59193;SDS011;44967;48.598;15.650;2023-11-21T09:56:48;6.30;;;4.60;;
59193;SDS011;44967;48.598;15.650;2023-11-21T09:59:15;12.10;;;6.05;;
59193;SDS011;44967;48.598;15.650;2023-11-21T10:01:42;18.83;;;10.30;;
59193;SDS011;44967;48.598;15.650;2023-11-21T10:04:11;17.75;;;10.43;;
59193;SDS011;44967;48.598;15.650;2023-11-21T10:06:40;15.18;;;9.85;;
59193;SDS011;44967;48.598;15.650;2023-11-21T10:09:08;16.70;;;9.23;;
59193;SDS011;44967;48.598;15.650;2023-11-21T10:11:40;13.00;;;7.07;;
59193;SDS011;44967;48.598;15.650;2023-11-21T10:14:10;11.55;;;6.95;;
59193;SDS011;44967;48.598;15.650;2023-11-21T10:16:38;10.48;;;5.03;;
59193;SDS011;44967;48.598;15.650;2023-11-21T10:19:05;3.97;;;2.88;;
59193;SDS011;44967;48.598;15.650;2023-11-21T10:21:33;1.17;;;0.88;;
59193;SDS011;44967;48.598;15.650;2023-11-21T10:23:59;2.78;;;0.80;;
59193;SDS011;44967;48.598;15.650;2023-11-21T10:26:26;4.10;;;0.80;;
59193;SDS011;44967;48.598;15.650;2023-11-21T10:28:57;2.60;;;0.90;;
59193;SDS011;44967;48.598;15.650;2023-11-21T10:31:26;1.70;;;0.40;;
59193;SDS011;44967;48.598;15.650;2023-11-21T10:33:52;0.65;;;0.40;;
59193;SDS011;44967;48.598;15.650;2023-11-21T10:36:25;2.05;;;0.80;;
59193;SDS011;44967;48.598;15.650;2023-11-21T10:38:55;1.77;;;0.80;;
59193;SDS011;44967;48.598;15.650;2023-11-21T10:41:22;1.25;;;0.50;;
59193;SDS011;44967;48.598;15.650;2023-11-21T10:43:48;2.22;;;0.75;;
59193;SDS011;44967;48.598;15.650;2023-11-21T10:46:14;2.05;;;0.73;;
59193;SDS011;44967;48.598;15.650;2023-11-21T10:48:43;1.10;;;0.57;;
59193;SDS011;44967;48.598;15.650;2023-11-21T10:51:09;1.63;;;0.50;;
59193;SDS011;44967;48.598;15.650;2023-11-21T10:53:39;0.52;;;0.52;;
59193;SDS011;44967;48.598;15.650;2023-11-21T10:56:08;1.02;;;0.80;;
59193;SDS011;44967;48.598;15.650;2023-11-21T10:58:43;2.57;;;0.63;;
59193;SDS011;44967;48.598;15.650;2023-11-21T11:01:09;2.47;;;0.70;;
59193;SDS011;44967;48.598;15.650;2023-11-21T11:03:39;1.45;;;0.60;;
59193;SDS011;44967;48.598;15.650;2023-11-21T11:06:07;1.38;;;0.40;;
59193;SDS011;44967;48.598;15.650;2023-11-21T11:08:37;2.28;;;0.50;;
59193;SDS011;44967;48.598;15.650;2023-11-21T11:11:06;1.20;;;0.60;;
59193;SDS011;44967;48.598;15.650;2023-11-21T11:13:34;2.10;;;0.70;;
59193;SDS011;44967;48.598;15.650;2023-11-21T11:16:01;2.35;;;0.68;;
59193;SDS011;44967;48.598;15.650;2023-11-21T11:18:32;1.25;;;0.60;;
59193;SDS011;44967;48.598;15.650;2023-11-21T11:29:56;0.73;;;0.60;;
59193;SDS011;44967;48.598;15.650;2023-11-21T11:35:21;1.67;;;0.70;;
59193;SDS011;44967;48.598;15.650;2023-11-21T11:38:05;0.68;;;0.60;;
59193;SDS011;44967;48.598;15.650;2023-11-21T11:40:42;0.90;;;0.70;;
59193;SDS011;44967;48.598;15.650;2023-11-21T11:43:11;0.93;;;0.75;;
59193;SDS011;44967;48.598;15.650;2023-11-21T11:45:37;2.67;;;0.70;;
59193;SDS011;44967;48.598;15.650;2023-11-21T11:48:07;2.70;;;0.90;;
59193;SDS011;44967;48.598;15.650;2023-11-21T11:50:42;2.30;;;0.55;;
59193;SDS011;44967;48.598;15.650;2023-11-21T11:53:35;1.15;;;0.60;;
59193;SDS011;44967;48.598;15.650;2023-11-21T11:58:54;3.60;;;0.70;;
59193;SDS011;44967;48.598;15.650;2023-11-21T12:01:22;1.27;;;0.80;;
59193;SDS011;44967;48.598;15.650;2023-11-21T12:06:42;1.73;;;0.88;;
59193;SDS011;44967;48.598;15.650;2023-11-21T12:09:17;1.05;;;0.80;;
59193;SDS011;44967;48.598;15.650;2023-11-21T12:11:52;2.17;;;1.27;;
59193;SDS011;44967;48.598;15.650;2023-11-21T12:14:22;2.97;;;1.30;;
59193;SDS011;44967;48.598;15.650;2023-11-21T12:16:48;1.33;;;0.95;;
59193;SDS011;44967;48.598;15.650;2023-11-21T12:19:14;1.48;;;0.75;;
59193;SDS011;44967;48.598;15.650;2023-11-21T12:21:40;0.70;;;0.70;;
59193;SDS011;44967;48.598;15.650;2023-11-21T12:24:07;3.55;;;0.98;;
59193;SDS011;44967;48.598;15.650;2023-11-21T12:26:42;0.88;;;0.80;;
59193;SDS011;44967;48.598;15.650;2023-11-21T12:29:09;0.63;;;0.63;;
59193;SDS011;44967;48.598;15.650;2023-11-21T12:31:35;0.75;;;0.60;;
59193;SDS011;44967;48.598;15.650;2023-11-21T12:34:01;0.60;;;0.52;;
59193;SDS011;44967;48.598;15.650;2023-11-21T12:36:27;2.15;;;0.60;;
59193;SDS011;44967;48.598;15.650;2023-11-21T12:38:55;0.70;;;0.60;;
59193;SDS011;44967;48.598;15.650;2023-11-21T12:41:22;1.35;;;0.70;;
59193;SDS011;44967;48.598;15.650;2023-11-21T12:43:48;5.50;;;1.27;;
59193;SDS011;44967;48.598;15.650;2023-11-21T12:46:14;1.52;;;0.60;;
59193;SDS011;44967;48.598;15.650;2023-11-21T12:48:44;0.50;;;0.50;;
59193;SDS011;44967;48.598;15.650;2023-11-21T12:51:13;0.47;;;0.43;;
59193;SDS011;44967;48.598;15.650;2023-11-21T12:53:40;1.17;;;0.85;;
59193;SDS011;44967;48.598;15.650;2023-11-21T12:56:07;1.17;;;1.08;;
59193;SDS011;44967;48.598;15.650;2023-11-21T12:58:35;1.65;;;1.42;;
59193;SDS011;44967;48.598;15.650;2023-11-21T13:01:02;3.60;;;2.30;;
59193;SDS011;44967;48.598;15.650;2023-11-21T13:03:31;2.55;;;1.50;;
59193;SDS011;44967;48.598;15.650;2023-11-21T13:05:58;1.27;;;0.70;;
59193;SDS011;44967;48.598;15.650;2023-11-21T13:08:24;1.10;;;0.73;;
59193;SDS011;44967;48.598;15.650;2023-11-21T13:10:52;1.17;;;0.60;;
59193;SDS011;44967;48.598;15.650;2023-11-21T13:13:20;1.15;;;0.80;;
59193;SDS011;44967;48.598;15.650;2023-11-21T13:15:47;1.90;;;0.57;;
59193;SDS011;44967;48.598;15.650;2023-11-21T13:18:26;0.95;;;0.70;;
59193;SDS011;44967;48.598;15.650;2023-11-21T13:20:53;3.10;;;1.02;;
59193;SDS011;44967;48.598;15.650;2023-11-21T13:23:23;0.63;;;0.63;;
59193;SDS011;44967;48.598;15.650;2023-11-21T13:25:50;2.25;;;0.75;;
59193;SDS011;44967;48.598;15.650;2023-11-21T13:28:16;1.45;;;0.70;;
59193;SDS011;44967;48.598;15.650;2023-11-21T13:30:43;2.30;;;1.25;;
59193;SDS011;44967;48.598;15.650;2023-11-21T13:33:10;2.88;;;1.25;;
59193;SDS011;44967;48.598;15.650;2023-11-21T13:35:43;1.65;;;0.82;;
59193;SDS011;44967;48.598;15.650;2023-11-21T13:38:17;1.85;;;0.70;;
59193;SDS011;44967;48.598;15.650;2023-11-21T13:40:49;2.13;;;0.52;;
59193;SDS011;44967;48.598;15.650;2023-11-21T13:43:19;2.33;;;0.70;;
59193;SDS011;44967;48.598;15.650;2023-11-21T13:45:47;2.10;;;0.70;;
59193;SDS011;44967;48.598;15.650;2023-11-21T13:48:24;1.25;;;0.68;;
59193;SDS011;44967;48.598;15.650;2023-11-21T13:51:06;1.45;;;0.60;;
59193;SDS011;44967;48.598;15.650;2023-11-21T13:53:45;2.22;;;0.57;;
59193;SDS011;44967;48.598;15.650;2023-11-21T13:56:16;1.48;;;0.80;;
59193;SDS011;44967;48.598;15.650;2023-11-21T13:58:49;0.40;;;0.40;;
59193;SDS011;44967;48.598;15.650;2023-11-21T14:01:20;0.70;;;0.40;;
59193;SDS011;44967;48.598;15.650;2023-11-21T14:03:59;0.82;;;0.55;;
59193;SDS011;44967;48.598;15.650;2023-11-21T14:06:34;1.20;;;0.82;;
59193;SDS011;44967;48.598;15.650;2023-11-21T14:09:11;0.50;;;0.50;;
59193;SDS011;44967;48.598;15.650;2023-11-21T14:11:43;1.23;;;0.70;;
59193;SDS011;44967;48.598;15.650;2023-11-21T14:14:09;0.50;;;0.50;;
59193;SDS011;44967;48.598;15.650;2023-11-21T14:16:35;2.67;;;0.90;;
59193;SDS011;44967;48.598;15.650;2023-11-21T14:19:00;0.40;;;0.40;;
59193;SDS011;44967;48.598;15.650;2023-11-21T14:21:42;0.63;;;0.60;;
59193;SDS011;44967;48.598;15.650;2023-11-21T14:24:09;0.95;;;0.52;;
59193;SDS011;44967;48.598;15.650;2023-11-21T14:26:35;1.10;;;0.60;;
59193;SDS011;44967;48.598;15.650;2023-11-21T14:29:01;1.77;;;0.40;;
59193;SDS011;44967;48.598;15.650;2023-11-21T14:31:28;0.50;;;0.50;;
59193;SDS011;44967;48.598;15.650;2023-11-21T14:33:56;0.98;;;0.50;;
59193;SDS011;44967;48.598;15.650;2023-11-21T14:36:22;0.80;;;0.60;;
59193;SDS011;44967;48.598;15.650;2023-11-21T14:38:49;1.02;;;0.50;;
59193;SDS011;44967;48.598;15.650;2023-11-21T14:41:15;1.85;;;0.80;;
59193;SDS011;44967;48.598;15.650;2023-11-21T14:43:42;1.20;;;0.70;;
59193;SDS011;44967;48.598;15.650;2023-11-21T14:46:10;0.95;;;0.60;;
59193;SDS011;44967;48.598;15.650;2023-11-21T14:48:41;1.55;;;0.70;;
59193;SDS011;44967;48.598;15.650;2023-11-21T14:51:21;0.75;;;0.50;;
59193;SDS011;44967;48.598;15.650;2023-11-21T14:53:56;1.38;;;0.75;;